createdAt,value
2022-10-05T00:00:13.559Z,10.70
2022-10-05T00:02:40.200Z,10.70
2022-10-05T00:05:20.367Z,10.70
2022-10-05T00:07:47.239Z,10.70
2022-10-05T00:10:17.955Z,10.70
2022-10-05T00:12:46.092Z,10.70
2022-10-05T00:15:16.559Z,10.70
2022-10-05T00:17:43.206Z,10.70
2022-10-05T00:20:23.188Z,10.70
2022-10-05T00:22:56.602Z,10.70
2022-10-05T00:25:24.037Z,10.70
2022-10-05T00:27:58.000Z,10.70
2022-10-05T00:30:30.568Z,10.70
2022-10-05T00:32:59.868Z,10.60
2022-10-05T00:35:29.077Z,10.60
2022-10-05T00:37:56.126Z,10.60
2022-10-05T00:40:50.591Z,10.50
2022-10-05T00:43:34.700Z,10.40
2022-10-05T00:46:49.193Z,10.40
2022-10-05T00:49:29.488Z,10.40
2022-10-05T00:52:38.149Z,10.30
2022-10-05T00:55:15.181Z,10.30
2022-10-05T00:58:13.671Z,10.30
2022-10-05T01:00:54.259Z,10.30
2022-10-05T01:03:48.530Z,10.30
2022-10-05T01:06:33.195Z,10.30
2022-10-05T01:09:29.717Z,10.30
2022-10-05T01:12:40.500Z,10.30
2022-10-05T01:15:33.168Z,10.30
2022-10-05T01:18:27.433Z,10.30
2022-10-05T01:21:04.016Z,10.30
2022-10-05T01:23:52.469Z,10.30
2022-10-05T01:26:41.282Z,10.30
2022-10-05T01:29:22.632Z,10.40
2022-10-05T01:32:02.627Z,10.40
2022-10-05T01:34:44.061Z,10.50
2022-10-05T01:37:27.350Z,10.60
2022-10-05T01:40:12.486Z,10.60
2022-10-05T01:43:24.951Z,10.70
2022-10-05T01:46:21.817Z,10.70
2022-10-05T01:49:06.561Z,10.80
2022-10-05T01:51:41.621Z,10.80
2022-10-05T01:54:31.295Z,10.80
2022-10-05T01:57:10.248Z,10.80
2022-10-05T01:59:57.965Z,10.80
2022-10-05T02:02:26.579Z,10.80
2022-10-05T02:05:02.944Z,10.90
2022-10-05T02:07:42.673Z,10.90
2022-10-05T02:10:19.425Z,10.90
2022-10-05T02:12:49.281Z,11.00
2022-10-05T02:15:22.393Z,11.00
2022-10-05T02:17:53.089Z,11.00
2022-10-05T02:20:28.698Z,11.00
2022-10-05T02:23:01.323Z,11.00
2022-10-05T02:25:36.529Z,11.00
2022-10-05T02:28:15.263Z,11.00
2022-10-05T02:30:51.578Z,11.00
2022-10-05T02:33:31.966Z,11.00
2022-10-05T02:36:12.710Z,11.00
2022-10-05T02:39:04.388Z,11.00
2022-10-05T02:41:50.191Z,11.00
2022-10-05T02:44:27.186Z,11.00
2022-10-05T02:47:23.771Z,11.00
2022-10-05T02:50:10.132Z,11.00
2022-10-05T02:52:49.820Z,11.00
2022-10-05T02:55:42.124Z,11.00
2022-10-05T02:58:14.815Z,11.00
2022-10-05T03:01:06.057Z,11.00
2022-10-05T03:03:41.572Z,11.00
2022-10-05T03:06:31.990Z,11.00
2022-10-05T03:09:07.461Z,11.10
2022-10-05T03:11:47.093Z,11.10
2022-10-05T03:14:21.447Z,11.10
2022-10-05T03:17:00.704Z,11.10
2022-10-05T03:19:38.420Z,11.00
2022-10-05T03:22:17.529Z,11.00
2022-10-05T03:25:18.348Z,11.00
2022-10-05T03:27:55.695Z,10.90
2022-10-05T03:30:25.975Z,10.90
2022-10-05T03:32:52.475Z,10.90
2022-10-05T03:35:31.019Z,10.80
2022-10-05T03:38:09.682Z,10.80
2022-10-05T03:40:54.477Z,10.80
2022-10-05T03:43:56.912Z,10.80
2022-10-05T03:46:45.775Z,10.80
2022-10-05T03:49:43.970Z,10.80
2022-10-05T03:52:28.404Z,10.80
2022-10-05T03:55:09.414Z,10.80
2022-10-05T03:57:39.860Z,10.70
2022-10-05T04:00:17.045Z,10.70
2022-10-05T04:03:05.319Z,10.70
2022-10-05T04:05:55.200Z,10.70
2022-10-05T04:08:32.378Z,10.70
2022-10-05T04:11:04.699Z,10.70
2022-10-05T04:13:54.688Z,10.70
2022-10-05T04:16:28.133Z,10.70
2022-10-05T04:19:41.882Z,10.70
2022-10-05T04:22:15.804Z,10.80
2022-10-05T04:24:51.856Z,10.80
2022-10-05T04:27:33.378Z,10.80
2022-10-05T04:30:15.919Z,10.90
2022-10-05T04:32:45.004Z,10.90
2022-10-05T04:35:32.863Z,10.90
2022-10-05T04:38:37.302Z,11.00
2022-10-05T04:41:31.284Z,11.00
2022-10-05T04:44:16.851Z,11.00
2022-10-05T04:47:11.402Z,11.00
2022-10-05T04:50:07.609Z,11.00
2022-10-05T04:53:07.631Z,11.10
2022-10-05T04:56:01.124Z,11.10
2022-10-05T04:58:28.073Z,11.10
2022-10-05T05:01:27.460Z,11.10
2022-10-05T05:04:13.125Z,11.10
2022-10-05T05:07:11.045Z,11.20
2022-10-05T05:10:10.206Z,11.20
2022-10-05T05:13:08.920Z,11.20
2022-10-05T05:15:57.853Z,11.20
2022-10-05T05:18:46.461Z,11.30
2022-10-05T05:21:29.889Z,11.30
2022-10-05T05:24:29.718Z,11.30
2022-10-05T05:27:24.298Z,11.30
2022-10-05T05:29:59.786Z,11.30
2022-10-05T05:32:29.474Z,11.30
2022-10-05T05:35:26.703Z,11.30
2022-10-05T05:38:04.156Z,11.30
2022-10-05T05:40:35.966Z,11.30
2022-10-05T05:43:22.808Z,11.30
2022-10-05T05:46:58.447Z,11.30
2022-10-05T05:49:29.664Z,11.30
2022-10-05T05:52:01.363Z,11.30
2022-10-05T05:54:33.305Z,11.30
2022-10-05T05:57:11.160Z,11.30
2022-10-05T06:00:03.823Z,11.40
2022-10-05T06:02:42.665Z,11.40
2022-10-05T06:05:36.175Z,11.50
2022-10-05T06:08:27.457Z,11.60
2022-10-05T06:11:01.672Z,11.70
2022-10-05T06:13:36.071Z,11.70
2022-10-05T06:16:30.102Z,11.80
2022-10-05T06:19:02.995Z,11.90
2022-10-05T06:21:45.619Z,12.00
2022-10-05T06:24:27.232Z,12.00
2022-10-05T06:27:12.562Z,12.10
2022-10-05T06:30:03.834Z,12.20
2022-10-05T06:32:36.135Z,12.30
2022-10-05T06:35:22.693Z,12.40
2022-10-05T06:38:09.679Z,12.40
2022-10-05T06:41:06.131Z,12.50
2022-10-05T06:43:45.068Z,12.60
2022-10-05T06:46:30.579Z,12.70
2022-10-05T06:48:57.480Z,12.80
2022-10-05T06:51:41.322Z,12.80
2022-10-05T06:54:19.652Z,12.90
2022-10-05T06:57:11.281Z,13.00
2022-10-05T06:59:47.135Z,13.00
2022-10-05T07:02:51.729Z,13.10
2022-10-05T07:05:31.159Z,13.20
2022-10-05T07:08:02.475Z,13.30
2022-10-05T07:10:29.086Z,13.30
2022-10-05T07:13:35.744Z,13.30
2022-10-05T07:16:09.174Z,13.40
2022-10-05T07:19:05.229Z,13.40
2022-10-05T07:22:05.489Z,13.50
2022-10-05T07:24:35.503Z,13.60
2022-10-05T07:27:24.010Z,13.70
2022-10-05T07:30:07.098Z,13.80
2022-10-05T07:32:34.368Z,13.90
2022-10-05T07:35:39.118Z,14.10
2022-10-05T07:38:21.429Z,14.20
2022-10-05T07:40:52.954Z,14.40
2022-10-05T07:44:01.133Z,14.50
2022-10-05T07:46:45.603Z,14.70
2022-10-05T07:49:32.814Z,14.90
2022-10-05T07:52:12.312Z,15.00
2022-10-05T07:54:57.452Z,15.20
2022-10-05T07:57:33.427Z,15.50
2022-10-05T08:00:13.678Z,15.60
2022-10-05T08:02:54.616Z,15.80
2022-10-05T08:05:29.829Z,15.90
2022-10-05T08:08:13.298Z,15.90
2022-10-05T08:10:51.813Z,15.90
2022-10-05T08:13:25.069Z,15.90
2022-10-05T08:15:57.885Z,15.90
2022-10-05T08:18:48.565Z,16.00
2022-10-05T08:21:21.111Z,16.10
2022-10-05T08:23:54.794Z,16.20
2022-10-05T08:26:41.317Z,16.30
2022-10-05T08:29:29.669Z,16.50
2022-10-05T08:32:06.110Z,16.60
2022-10-05T08:35:01.867Z,16.70
2022-10-05T08:37:41.364Z,16.80
2022-10-05T08:40:22.690Z,16.90
2022-10-05T08:43:17.664Z,16.90
2022-10-05T08:46:03.318Z,16.80
2022-10-05T08:48:44.696Z,16.70
2022-10-05T08:51:36.783Z,16.80
2022-10-05T08:54:18.402Z,16.90
2022-10-05T08:57:01.944Z,16.90
2022-10-05T08:59:53.785Z,16.90
2022-10-05T09:02:29.354Z,16.80
2022-10-05T09:05:17.398Z,16.70
2022-10-05T09:08:08.935Z,16.60
2022-10-05T09:10:45.256Z,16.60
2022-10-05T09:13:21.135Z,16.50
2022-10-05T09:16:12.432Z,16.50
2022-10-05T09:19:03.557Z,16.60
2022-10-05T09:22:24.534Z,16.70
2022-10-05T09:24:55.301Z,16.80
2022-10-05T09:27:37.819Z,16.70
2022-10-05T09:30:33.791Z,16.80
2022-10-05T09:33:38.130Z,16.80
2022-10-05T09:36:39.655Z,16.80
2022-10-05T09:39:48.427Z,16.90
2022-10-05T09:42:44.432Z,17.00
2022-10-05T09:45:42.001Z,17.20
2022-10-05T09:48:40.638Z,17.30
2022-10-05T09:51:33.087Z,17.40
2022-10-05T09:54:15.000Z,17.50
2022-10-05T09:56:47.927Z,17.60
2022-10-05T09:59:33.294Z,17.70
2022-10-05T10:02:30.826Z,17.80
2022-10-05T10:05:23.718Z,17.90
2022-10-05T10:08:06.090Z,17.90
2022-10-05T10:10:53.561Z,18.00
2022-10-05T10:13:38.139Z,18.10
2022-10-05T10:16:42.807Z,18.20
2022-10-05T10:19:24.450Z,18.20
2022-10-05T10:22:44.159Z,18.20
2022-10-05T10:25:27.568Z,18.30
2022-10-05T10:28:28.849Z,18.40
2022-10-05T10:31:09.493Z,18.30
2022-10-05T10:34:03.164Z,18.30
2022-10-05T10:36:51.709Z,18.30
2022-10-05T10:39:45.161Z,18.30
2022-10-05T10:42:12.084Z,18.30
2022-10-05T10:45:15.250Z,18.20
2022-10-05T10:48:00.672Z,18.20
2022-10-05T10:50:36.866Z,18.20
2022-10-05T10:53:53.691Z,18.20
2022-10-05T10:56:48.734Z,18.20
2022-10-05T11:00:06.230Z,18.20
2022-10-05T11:03:05.290Z,18.10
2022-10-05T11:06:17.386Z,18.10
2022-10-05T11:08:50.483Z,18.00
2022-10-05T11:11:38.709Z,18.00
2022-10-05T11:14:39.804Z,18.00
2022-10-05T11:17:51.157Z,18.00
2022-10-05T11:20:55.950Z,17.90
2022-10-05T11:24:01.195Z,18.00
2022-10-05T11:26:47.433Z,18.10
2022-10-05T11:29:32.684Z,18.00
2022-10-05T11:32:21.091Z,18.00
2022-10-05T11:34:59.460Z,18.00
2022-10-05T11:37:34.964Z,18.00
2022-10-05T11:40:39.938Z,18.00
2022-10-05T11:43:32.186Z,18.00
2022-10-05T11:46:17.394Z,18.00
2022-10-05T11:49:12.443Z,18.00
2022-10-05T11:52:01.556Z,17.90
2022-10-05T11:55:15.356Z,17.90
2022-10-05T11:57:58.718Z,17.90
2022-10-05T12:00:33.385Z,17.90
2022-10-05T12:03:23.613Z,17.90
2022-10-05T12:06:08.889Z,18.00
2022-10-05T12:09:02.963Z,18.00
2022-10-05T12:11:47.069Z,18.10
2022-10-05T12:14:24.697Z,18.10
2022-10-05T12:16:59.868Z,18.20
2022-10-05T12:19:55.866Z,18.20
2022-10-05T12:22:52.478Z,18.20
2022-10-05T12:25:26.219Z,18.20
2022-10-05T12:27:57.312Z,18.30
2022-10-05T12:30:54.607Z,18.30
2022-10-05T12:33:33.277Z,18.30
2022-10-05T12:36:17.197Z,18.20
2022-10-05T12:38:57.094Z,18.10
2022-10-05T12:41:36.551Z,18.10
2022-10-05T12:44:22.083Z,18.10
2022-10-05T12:46:53.892Z,18.20
2022-10-05T12:49:25.044Z,18.10
2022-10-05T12:51:58.623Z,18.10
2022-10-05T12:54:46.717Z,18.10
2022-10-05T12:57:23.944Z,18.00
2022-10-05T12:59:59.454Z,18.00
2022-10-05T13:02:45.736Z,18.00
2022-10-05T13:05:12.217Z,18.00
2022-10-05T13:08:05.936Z,17.90
2022-10-05T13:11:14.898Z,17.90
2022-10-05T13:14:10.848Z,17.90
2022-10-05T13:16:55.820Z,17.80
2022-10-05T13:19:28.659Z,17.80
2022-10-05T13:22:16.862Z,17.80
2022-10-05T13:24:55.751Z,17.70
2022-10-05T13:27:35.486Z,17.70
2022-10-05T13:30:20.395Z,17.80
2022-10-05T13:32:57.124Z,17.80
2022-10-05T13:35:53.299Z,17.90
2022-10-05T13:38:29.233Z,18.70
2022-10-05T13:41:32.283Z,17.90
2022-10-05T13:44:28.199Z,17.90
2022-10-05T13:47:03.610Z,17.90
2022-10-05T13:49:53.623Z,18.00
2022-10-05T13:52:28.907Z,18.00
2022-10-05T13:55:10.816Z,18.10
2022-10-05T13:57:51.951Z,18.00
2022-10-05T14:00:26.490Z,18.00
2022-10-05T14:02:56.876Z,17.90
2022-10-05T14:05:25.086Z,17.90
2022-10-05T14:08:04.061Z,17.80
2022-10-05T14:10:34.321Z,17.80
2022-10-05T14:13:09.077Z,17.70
2022-10-05T14:15:41.311Z,17.60
2022-10-05T14:18:25.746Z,17.60
2022-10-05T14:21:08.023Z,17.50
2022-10-05T14:23:35.299Z,17.50
2022-10-05T14:26:04.473Z,17.50
2022-10-05T14:28:34.220Z,17.50
2022-10-05T14:31:13.095Z,17.40
2022-10-05T14:33:40.518Z,17.40
2022-10-05T14:36:21.255Z,17.40
2022-10-05T14:38:55.741Z,17.30
2022-10-05T14:41:27.568Z,17.30
2022-10-05T14:44:09.876Z,17.20
2022-10-05T14:46:38.535Z,17.20
2022-10-05T14:49:17.974Z,17.20
2022-10-05T14:51:45.043Z,17.20
2022-10-05T14:54:31.396Z,17.10
2022-10-05T14:57:13.417Z,17.10
2022-10-05T15:00:09.167Z,17.10
2022-10-05T15:02:53.427Z,17.00
2022-10-05T15:05:35.440Z,17.00
2022-10-05T15:08:31.183Z,17.00
2022-10-05T15:11:07.926Z,16.90
2022-10-05T15:13:47.400Z,16.90
2022-10-05T15:16:35.993Z,16.90
2022-10-05T15:19:20.732Z,16.80
2022-10-05T15:22:11.140Z,16.70
2022-10-05T15:25:01.643Z,16.70
2022-10-05T15:27:49.568Z,16.70
2022-10-05T15:30:18.147Z,16.60
2022-10-05T15:33:06.810Z,16.50
2022-10-05T15:35:49.680Z,16.50
2022-10-05T15:38:29.730Z,16.50
2022-10-05T15:41:04.718Z,16.40
2022-10-05T15:43:47.203Z,16.40
2022-10-05T15:46:23.851Z,16.40
2022-10-05T15:49:24.138Z,16.40
2022-10-05T15:52:02.535Z,16.30
2022-10-05T15:54:57.167Z,16.30
2022-10-05T15:57:45.828Z,16.20
2022-10-05T16:00:18.593Z,16.20
2022-10-05T16:03:04.257Z,16.10
2022-10-05T16:05:59.224Z,16.10
2022-10-05T16:08:51.211Z,16.00
2022-10-05T16:11:43.226Z,15.90
2022-10-05T16:14:45.258Z,15.90
2022-10-05T16:17:44.047Z,15.80
2022-10-05T16:20:26.927Z,15.70
2022-10-05T16:23:23.851Z,15.60
2022-10-05T16:26:04.304Z,15.50
2022-10-05T16:28:39.390Z,15.40
2022-10-05T16:31:32.672Z,15.40
2022-10-05T16:34:07.729Z,15.30
2022-10-05T16:37:04.001Z,15.20
2022-10-05T16:39:48.641Z,15.10
2022-10-05T16:42:22.254Z,15.00
2022-10-05T16:45:08.533Z,15.00
2022-10-05T16:47:37.862Z,14.90
2022-10-05T16:50:37.417Z,14.80
2022-10-05T16:53:13.417Z,14.80
2022-10-05T16:55:48.624Z,14.70
2022-10-05T16:58:28.280Z,14.70
2022-10-05T17:01:18.821Z,14.60
2022-10-05T17:03:58.636Z,14.50
2022-10-05T17:06:59.768Z,14.40
2022-10-05T17:09:37.163Z,14.30
2022-10-05T17:12:22.513Z,14.20
2022-10-05T17:15:10.511Z,14.10
2022-10-05T17:18:11.604Z,14.00
2022-10-05T17:20:57.225Z,13.90
2022-10-05T17:23:31.751Z,13.80
2022-10-05T17:26:06.770Z,13.70
2022-10-05T17:29:09.352Z,13.70
2022-10-05T17:32:01.985Z,13.60
2022-10-05T17:34:36.927Z,13.50
2022-10-05T17:37:31.793Z,13.40
2022-10-05T17:39:59.326Z,13.40
2022-10-05T17:42:29.094Z,13.30
2022-10-05T17:45:00.776Z,13.30
2022-10-05T17:48:00.302Z,13.30
2022-10-05T17:50:57.956Z,13.20
2022-10-05T17:53:55.025Z,13.20
2022-10-05T17:56:23.327Z,13.10
2022-10-05T17:58:54.453Z,13.10
2022-10-05T18:01:35.855Z,13.00
2022-10-05T18:04:11.407Z,13.10
2022-10-05T18:06:45.186Z,13.00
2022-10-05T18:09:17.380Z,13.10
2022-10-05T18:11:48.555Z,13.10
2022-10-05T18:14:25.036Z,13.10
2022-10-05T18:17:11.638Z,13.20
2022-10-05T18:19:39.425Z,13.20
2022-10-05T18:22:18.341Z,13.20
2022-10-05T18:24:56.130Z,13.20
2022-10-05T18:27:35.520Z,13.20
2022-10-05T18:30:17.254Z,13.20
2022-10-05T18:33:20.916Z,13.20
2022-10-05T18:36:06.349Z,13.20
2022-10-05T18:38:44.548Z,13.20
2022-10-05T18:41:35.571Z,13.20
2022-10-05T18:44:08.967Z,13.20
2022-10-05T18:46:55.299Z,13.20
2022-10-05T18:49:47.517Z,13.20
2022-10-05T18:52:41.902Z,12.40
2022-10-05T18:55:39.503Z,13.20
2022-10-05T18:58:36.219Z,13.20
2022-10-05T19:01:23.246Z,13.20
2022-10-05T19:04:16.108Z,13.30
2022-10-05T19:06:54.839Z,13.40
2022-10-05T19:09:55.855Z,13.50
2022-10-05T19:12:40.614Z,13.60
2022-10-05T19:15:23.916Z,13.70
2022-10-05T19:17:54.727Z,13.90
2022-10-05T19:20:28.608Z,13.90
2022-10-05T19:23:22.635Z,14.10
2022-10-05T19:25:59.538Z,14.20
2022-10-05T19:28:59.234Z,14.30
2022-10-05T19:31:48.596Z,14.40
2022-10-05T19:34:57.298Z,14.50
2022-10-05T19:37:50.751Z,14.50
2022-10-05T19:40:56.470Z,14.60
2022-10-05T19:44:02.957Z,14.60
2022-10-05T19:46:48.516Z,14.70
2022-10-05T19:49:57.781Z,14.70
2022-10-05T19:52:36.543Z,14.80
2022-10-05T19:55:16.622Z,14.80
2022-10-05T19:57:48.851Z,14.80
2022-10-05T20:00:30.319Z,14.80
2022-10-05T20:03:23.707Z,14.80
2022-10-05T20:05:50.847Z,14.80
2022-10-05T20:08:20.501Z,14.70
2022-10-05T20:11:07.034Z,14.70
2022-10-05T20:13:35.522Z,14.70
2022-10-05T20:16:26.891Z,14.70
2022-10-05T20:19:12.452Z,14.60
2022-10-05T20:21:46.498Z,14.60
2022-10-05T20:24:36.809Z,14.60
2022-10-05T20:27:03.515Z,14.60
2022-10-05T20:29:36.118Z,14.50
2022-10-05T20:32:17.715Z,14.50
2022-10-05T20:34:47.167Z,14.50
2022-10-05T20:37:16.288Z,14.50
2022-10-05T20:39:43.915Z,14.60
2022-10-05T20:42:11.570Z,14.60
2022-10-05T20:44:38.449Z,14.40
2022-10-05T20:47:09.048Z,14.60
2022-10-05T20:49:36.766Z,14.60
2022-10-05T20:52:09.989Z,14.60
2022-10-05T20:54:38.504Z,14.60
2022-10-05T20:57:08.304Z,14.60
2022-10-05T20:59:35.829Z,14.60
2022-10-05T21:02:04.119Z,14.60
2022-10-05T21:04:41.517Z,14.60
2022-10-05T21:07:09.280Z,14.60
2022-10-05T21:09:38.194Z,14.60
2022-10-05T21:12:05.329Z,14.60
2022-10-05T21:14:34.660Z,14.60
2022-10-05T21:17:02.390Z,14.50
2022-10-05T21:19:29.404Z,14.50
2022-10-05T21:21:58.992Z,14.60
2022-10-05T21:24:26.494Z,14.50
2022-10-05T21:26:57.407Z,14.60
2022-10-05T21:29:24.465Z,14.60
2022-10-05T21:31:51.155Z,14.70
2022-10-05T21:34:17.878Z,14.70
2022-10-05T21:36:44.844Z,14.80
2022-10-05T21:39:11.378Z,14.90
2022-10-05T21:41:38.348Z,14.90
2022-10-05T21:44:07.040Z,14.90
2022-10-05T21:46:35.798Z,14.90
2022-10-05T21:49:02.981Z,15.00
2022-10-05T21:51:29.627Z,15.10
2022-10-05T21:54:03.274Z,15.10
2022-10-05T21:56:35.075Z,15.10
2022-10-05T21:59:04.441Z,15.10
2022-10-05T22:01:31.610Z,15.20
2022-10-05T22:03:58.569Z,15.20
2022-10-05T22:06:25.166Z,15.20
2022-10-05T22:08:52.111Z,15.20
2022-10-05T22:11:18.799Z,15.30
2022-10-05T22:13:48.139Z,15.40
2022-10-05T22:16:16.709Z,15.40
2022-10-05T22:18:44.342Z,15.40
2022-10-05T22:21:12.926Z,15.40
2022-10-05T22:23:41.373Z,15.40
2022-10-05T22:26:10.724Z,15.40
2022-10-05T22:28:38.867Z,15.40
2022-10-05T22:31:07.952Z,15.40
2022-10-05T22:33:35.018Z,15.40
2022-10-05T22:36:02.043Z,15.40
2022-10-05T22:38:30.884Z,15.40
2022-10-05T22:40:58.223Z,15.40
2022-10-05T22:43:26.896Z,15.40
2022-10-05T22:45:54.647Z,15.40
2022-10-05T22:48:21.534Z,15.40
2022-10-05T22:50:49.118Z,15.40
2022-10-05T22:53:16.332Z,15.40
2022-10-05T22:55:43.330Z,15.60
2022-10-05T22:58:09.920Z,15.50
2022-10-05T23:00:56.883Z,15.50
2022-10-05T23:03:23.659Z,15.50
2022-10-05T23:05:57.341Z,15.50
2022-10-05T23:08:24.183Z,15.60
2022-10-05T23:10:50.726Z,15.60
2022-10-05T23:13:17.676Z,15.60
2022-10-05T23:15:44.775Z,15.70
2022-10-05T23:18:12.455Z,15.70
2022-10-05T23:20:40.079Z,15.70
2022-10-05T23:23:07.027Z,15.80
2022-10-05T23:25:33.615Z,15.80
2022-10-05T23:28:02.831Z,15.80
2022-10-05T23:30:29.497Z,15.90
2022-10-05T23:32:56.497Z,15.90
2022-10-05T23:35:23.139Z,15.90
2022-10-05T23:37:49.708Z,15.90
2022-10-05T23:40:16.814Z,15.90
2022-10-05T23:42:43.343Z,15.80
2022-10-05T23:45:11.491Z,15.90
2022-10-05T23:47:38.878Z,15.90
2022-10-05T23:50:07.740Z,16.00
2022-10-05T23:52:35.501Z,16.10
2022-10-05T23:55:05.927Z,16.10
2022-10-05T23:57:33.032Z,16.20
